TAF SKSP
SKSP 081030Z 0812/0912 07015KT 9999 FEW020 TX31/0819Z TN25/0910Z=
METAR SKSP
SKSP 080000Z 08015KT 050V120 9999 FEW017 28/24 Q1011 RMK A2986=
SKSP 062300Z 06012KT 9999 FEW017 BKN200 29/24 Q1012 RMK A2988=
SKSP 060200Z 07008KT 040V100 9999 FEW017 28/24 Q1013 RMK A2992=
SKSP 060100Z 07011KT 050V120 9999 FEW017 28/24 Q1012 RMK A2990=
SKSP 052300Z 06011KT 040V100 9999 SCT017 28/24 Q1011 RMK A2987=
WC SKSP
WS SKSP
WV SKSP